sensor_id;sensor_type;location;lat;lon;timestamp;P1;durP1;ratioP1;P2;durP2;ratioP2
59159;SDS011;44941;45.058;20.076;2022-07-05T00:01:10;7.30;;;1.20;;
59159;SDS011;44941;45.058;20.076;2022-07-05T00:03:36;12.57;;;1.60;;
59159;SDS011;44941;45.058;20.076;2022-07-05T00:06:02;4.68;;;1.42;;
59159;SDS011;44941;45.058;20.076;2022-07-05T00:08:28;8.38;;;1.30;;
59159;SDS011;44941;45.058;20.076;2022-07-05T00:10:54;5.30;;;1.27;;
59159;SDS011;44941;45.058;20.076;2022-07-05T00:13:20;3.83;;;1.27;;
59159;SDS011;44941;45.058;20.076;2022-07-05T00:15:46;6.65;;;1.58;;
59159;SDS011;44941;45.058;20.076;2022-07-05T00:18:12;5.65;;;1.40;;
59159;SDS011;44941;45.058;20.076;2022-07-05T00:20:38;8.57;;;1.48;;
59159;SDS011;44941;45.058;20.076;2022-07-05T00:23:05;6.25;;;1.48;;
59159;SDS011;44941;45.058;20.076;2022-07-05T00:25:31;10.02;;;1.80;;
59159;SDS011;44941;45.058;20.076;2022-07-05T00:27:57;5.22;;;1.75;;
59159;SDS011;44941;45.058;20.076;2022-07-05T00:30:23;10.15;;;2.38;;
59159;SDS011;44941;45.058;20.076;2022-07-05T00:32:49;7.97;;;2.28;;
59159;SDS011;44941;45.058;20.076;2022-07-05T00:35:15;9.07;;;2.20;;
59159;SDS011;44941;45.058;20.076;2022-07-05T00:37:41;7.07;;;2.78;;
59159;SDS011;44941;45.058;20.076;2022-07-05T00:40:07;8.55;;;2.60;;
59159;SDS011;44941;45.058;20.076;2022-07-05T00:42:34;7.00;;;2.78;;
59159;SDS011;44941;45.058;20.076;2022-07-05T00:45:02;11.77;;;3.83;;
59159;SDS011;44941;45.058;20.076;2022-07-05T00:47:28;18.50;;;2.35;;
59159;SDS011;44941;45.058;20.076;2022-07-05T00:49:54;4.40;;;1.90;;
59159;SDS011;44941;45.058;20.076;2022-07-05T00:52:20;8.25;;;2.08;;
59159;SDS011;44941;45.058;20.076;2022-07-05T00:57:14;7.18;;;1.83;;
59159;SDS011;44941;45.058;20.076;2022-07-05T00:59:41;5.60;;;2.13;;
59159;SDS011;44941;45.058;20.076;2022-07-05T01:02:07;8.77;;;2.07;;
59159;SDS011;44941;45.058;20.076;2022-07-05T01:04:33;5.05;;;1.63;;
59159;SDS011;44941;45.058;20.076;2022-07-05T01:06:59;5.28;;;1.95;;
59159;SDS011;44941;45.058;20.076;2022-07-05T01:09:28;8.32;;;2.17;;
59159;SDS011;44941;45.058;20.076;2022-07-05T01:11:54;5.10;;;2.03;;
59159;SDS011;44941;45.058;20.076;2022-07-05T01:14:22;7.45;;;2.13;;
59159;SDS011;44941;45.058;20.076;2022-07-05T01:16:48;5.75;;;1.80;;
59159;SDS011;44941;45.058;20.076;2022-07-05T01:19:15;8.32;;;2.00;;
59159;SDS011;44941;45.058;20.076;2022-07-05T01:21:43;4.43;;;1.77;;
59159;SDS011;44941;45.058;20.076;2022-07-05T01:24:10;4.70;;;1.90;;
59159;SDS011;44941;45.058;20.076;2022-07-05T01:26:37;4.30;;;1.75;;
59159;SDS011;44941;45.058;20.076;2022-07-05T01:29:04;4.93;;;1.75;;
59159;SDS011;44941;45.058;20.076;2022-07-05T01:31:30;4.63;;;1.77;;
59159;SDS011;44941;45.058;20.076;2022-07-05T01:33:56;8.95;;;2.25;;
59159;SDS011;44941;45.058;20.076;2022-07-05T01:36:23;6.20;;;1.85;;
59159;SDS011;44941;45.058;20.076;2022-07-05T01:38:49;8.18;;;2.10;;
59159;SDS011;44941;45.058;20.076;2022-07-05T01:41:16;8.85;;;2.13;;
59159;SDS011;44941;45.058;20.076;2022-07-05T01:43:42;6.28;;;2.20;;
59159;SDS011;44941;45.058;20.076;2022-07-05T01:46:09;5.18;;;2.20;;
59159;SDS011;44941;45.058;20.076;2022-07-05T01:48:37;7.18;;;1.95;;
59159;SDS011;44941;45.058;20.076;2022-07-05T01:51:05;6.60;;;2.17;;
59159;SDS011;44941;45.058;20.076;2022-07-05T01:53:32;8.40;;;2.33;;
59159;SDS011;44941;45.058;20.076;2022-07-05T01:55:59;7.32;;;2.40;;
59159;SDS011;44941;45.058;20.076;2022-07-05T01:58:26;5.50;;;2.63;;
59159;SDS011;44941;45.058;20.076;2022-07-05T02:00:53;8.15;;;2.70;;
59159;SDS011;44941;45.058;20.076;2022-07-05T02:03:19;7.38;;;2.53;;
59159;SDS011;44941;45.058;20.076;2022-07-05T02:05:46;5.40;;;2.35;;
59159;SDS011;44941;45.058;20.076;2022-07-05T02:08:14;7.65;;;2.80;;
59159;SDS011;44941;45.058;20.076;2022-07-05T02:10:40;5.38;;;2.33;;
59159;SDS011;44941;45.058;20.076;2022-07-05T02:13:07;5.05;;;2.17;;
59159;SDS011;44941;45.058;20.076;2022-07-05T02:15:34;6.53;;;2.33;;
59159;SDS011;44941;45.058;20.076;2022-07-05T02:18:00;5.93;;;2.50;;
59159;SDS011;44941;45.058;20.076;2022-07-05T02:20:27;8.50;;;2.83;;
59159;SDS011;44941;45.058;20.076;2022-07-05T02:22:53;10.23;;;2.50;;
59159;SDS011;44941;45.058;20.076;2022-07-05T02:25:19;9.15;;;2.10;;
59159;SDS011;44941;45.058;20.076;2022-07-05T02:27:46;7.03;;;2.30;;
59159;SDS011;44941;45.058;20.076;2022-07-05T02:30:12;14.10;;;2.92;;
59159;SDS011;44941;45.058;20.076;2022-07-05T02:32:38;8.38;;;2.33;;
59159;SDS011;44941;45.058;20.076;2022-07-05T02:35:08;6.82;;;2.67;;
59159;SDS011;44941;45.058;20.076;2022-07-05T02:40:26;5.93;;;2.40;;
59159;SDS011;44941;45.058;20.076;2022-07-05T02:42:52;9.52;;;2.33;;
59159;SDS011;44941;45.058;20.076;2022-07-05T02:45:18;6.50;;;2.25;;
59159;SDS011;44941;45.058;20.076;2022-07-05T02:47:44;6.43;;;2.17;;
59159;SDS011;44941;45.058;20.076;2022-07-05T02:50:10;10.13;;;2.80;;
59159;SDS011;44941;45.058;20.076;2022-07-05T02:52:37;10.10;;;2.90;;
59159;SDS011;44941;45.058;20.076;2022-07-05T02:55:03;11.73;;;3.30;;
59159;SDS011;44941;45.058;20.076;2022-07-05T02:57:30;7.78;;;2.70;;
59159;SDS011;44941;45.058;20.076;2022-07-05T02:59:56;8.13;;;2.50;;
59159;SDS011;44941;45.058;20.076;2022-07-05T03:02:23;8.17;;;2.87;;
59159;SDS011;44941;45.058;20.076;2022-07-05T03:04:49;10.77;;;2.87;;
59159;SDS011;44941;45.058;20.076;2022-07-05T03:07:15;6.20;;;2.88;;
59159;SDS011;44941;45.058;20.076;2022-07-05T03:09:41;7.55;;;2.50;;
59159;SDS011;44941;45.058;20.076;2022-07-05T03:12:08;7.10;;;2.22;;
59159;SDS011;44941;45.058;20.076;2022-07-05T03:14:34;5.63;;;2.25;;
59159;SDS011;44941;45.058;20.076;2022-07-05T03:17:00;6.53;;;2.22;;
59159;SDS011;44941;45.058;20.076;2022-07-05T03:19:26;6.60;;;2.55;;
59159;SDS011;44941;45.058;20.076;2022-07-05T03:21:52;10.70;;;2.55;;
59159;SDS011;44941;45.058;20.076;2022-07-05T03:24:18;10.98;;;2.80;;
59159;SDS011;44941;45.058;20.076;2022-07-05T03:26:44;9.13;;;2.80;;
59159;SDS011;44941;45.058;20.076;2022-07-05T03:29:10;4.50;;;2.30;;
59159;SDS011;44941;45.058;20.076;2022-07-05T03:31:37;9.05;;;2.30;;
59159;SDS011;44941;45.058;20.076;2022-07-05T03:34:03;9.18;;;2.70;;
59159;SDS011;44941;45.058;20.076;2022-07-05T03:36:29;7.05;;;2.35;;
59159;SDS011;44941;45.058;20.076;2022-07-05T03:38:55;8.63;;;2.50;;
59159;SDS011;44941;45.058;20.076;2022-07-05T03:41:21;5.93;;;2.25;;
59159;SDS011;44941;45.058;20.076;2022-07-05T03:43:47;8.02;;;2.65;;
59159;SDS011;44941;45.058;20.076;2022-07-05T03:46:13;6.40;;;2.97;;
59159;SDS011;44941;45.058;20.076;2022-07-05T03:48:40;6.72;;;3.28;;
59159;SDS011;44941;45.058;20.076;2022-07-05T03:51:06;9.15;;;2.90;;
59159;SDS011;44941;45.058;20.076;2022-07-05T03:53:32;10.77;;;2.90;;
59159;SDS011;44941;45.058;20.076;2022-07-05T03:55:58;7.57;;;3.13;;
59159;SDS011;44941;45.058;20.076;2022-07-05T03:58:24;17.08;;;3.85;;
59159;SDS011;44941;45.058;20.076;2022-07-05T04:00:50;14.55;;;2.88;;
59159;SDS011;44941;45.058;20.076;2022-07-05T04:03:16;22.15;;;3.63;;
59159;SDS011;44941;45.058;20.076;2022-07-05T04:05:42;12.65;;;3.38;;
59159;SDS011;44941;45.058;20.076;2022-07-05T04:08:08;13.05;;;3.70;;
59159;SDS011;44941;45.058;20.076;2022-07-05T04:10:34;15.13;;;3.60;;
59159;SDS011;44941;45.058;20.076;2022-07-05T04:13:00;14.95;;;3.50;;
59159;SDS011;44941;45.058;20.076;2022-07-05T04:15:26;12.45;;;3.40;;
59159;SDS011;44941;45.058;20.076;2022-07-05T04:17:53;13.10;;;3.50;;
59159;SDS011;44941;45.058;20.076;2022-07-05T04:20:20;16.17;;;4.20;;
59159;SDS011;44941;45.058;20.076;2022-07-05T04:22:47;19.70;;;3.40;;
59159;SDS011;44941;45.058;20.076;2022-07-05T04:25:13;14.15;;;3.83;;
59159;SDS011;44941;45.058;20.076;2022-07-05T04:27:53;12.55;;;3.90;;
59159;SDS011;44941;45.058;20.076;2022-07-05T04:30:23;11.30;;;3.83;;
59159;SDS011;44941;45.058;20.076;2022-07-05T04:32:49;10.32;;;3.58;;
59159;SDS011;44941;45.058;20.076;2022-07-05T04:35:15;10.00;;;4.97;;
59159;SDS011;44941;45.058;20.076;2022-07-05T04:37:42;14.73;;;5.38;;
59159;SDS011;44941;45.058;20.076;2022-07-05T04:40:09;13.50;;;6.55;;
59159;SDS011;44941;45.058;20.076;2022-07-05T04:42:36;15.18;;;8.60;;
59159;SDS011;44941;45.058;20.076;2022-07-05T04:45:02;15.90;;;9.38;;
59159;SDS011;44941;45.058;20.076;2022-07-05T04:47:28;13.30;;;7.30;;
59159;SDS011;44941;45.058;20.076;2022-07-05T04:49:55;14.02;;;6.55;;
59159;SDS011;44941;45.058;20.076;2022-07-05T04:54:48;14.70;;;6.05;;
59159;SDS011;44941;45.058;20.076;2022-07-05T04:57:14;17.00;;;6.75;;
59159;SDS011;44941;45.058;20.076;2022-07-05T04:59:40;12.70;;;6.72;;
59159;SDS011;44941;45.058;20.076;2022-07-05T05:02:06;16.73;;;7.15;;
59159;SDS011;44941;45.058;20.076;2022-07-05T05:04:32;15.20;;;6.38;;
59159;SDS011;44941;45.058;20.076;2022-07-05T05:06:58;15.52;;;7.22;;
59159;SDS011;44941;45.058;20.076;2022-07-05T05:09:24;10.85;;;6.45;;
59159;SDS011;44941;45.058;20.076;2022-07-05T05:11:50;12.10;;;7.38;;
59159;SDS011;44941;45.058;20.076;2022-07-05T05:14:17;16.55;;;7.97;;
59159;SDS011;44941;45.058;20.076;2022-07-05T05:16:43;13.55;;;7.70;;
59159;SDS011;44941;45.058;20.076;2022-07-05T05:19:09;13.02;;;8.02;;
59159;SDS011;44941;45.058;20.076;2022-07-05T05:21:35;13.57;;;7.68;;
59159;SDS011;44941;45.058;20.076;2022-07-05T05:24:01;13.93;;;7.30;;
59159;SDS011;44941;45.058;20.076;2022-07-05T05:26:27;13.73;;;6.60;;
59159;SDS011;44941;45.058;20.076;2022-07-05T05:28:53;11.57;;;5.75;;
59159;SDS011;44941;45.058;20.076;2022-07-05T05:31:20;9.80;;;5.30;;
59159;SDS011;44941;45.058;20.076;2022-07-05T05:33:46;10.45;;;5.18;;
59159;SDS011;44941;45.058;20.076;2022-07-05T05:36:12;9.63;;;5.82;;
59159;SDS011;44941;45.058;20.076;2022-07-05T05:38:38;18.10;;;5.10;;
59159;SDS011;44941;45.058;20.076;2022-07-05T05:41:04;18.40;;;6.03;;
59159;SDS011;44941;45.058;20.076;2022-07-05T05:43:30;11.23;;;5.18;;
59159;SDS011;44941;45.058;20.076;2022-07-05T05:45:56;9.88;;;5.10;;
59159;SDS011;44941;45.058;20.076;2022-07-05T05:48:22;11.45;;;4.55;;
59159;SDS011;44941;45.058;20.076;2022-07-05T05:50:49;13.18;;;4.72;;
59159;SDS011;44941;45.058;20.076;2022-07-05T05:53:16;9.70;;;4.68;;
59159;SDS011;44941;45.058;20.076;2022-07-05T05:55:42;10.52;;;4.72;;
59159;SDS011;44941;45.058;20.076;2022-07-05T05:58:18;11.88;;;4.28;;
59159;SDS011;44941;45.058;20.076;2022-07-05T06:00:45;12.48;;;3.95;;
59159;SDS011;44941;45.058;20.076;2022-07-05T06:03:17;12.43;;;4.13;;
59159;SDS011;44941;45.058;20.076;2022-07-05T06:05:43;10.80;;;4.00;;
59159;SDS011;44941;45.058;20.076;2022-07-05T06:08:10;9.55;;;3.72;;
59159;SDS011;44941;45.058;20.076;2022-07-05T06:10:36;10.40;;;3.90;;
59159;SDS011;44941;45.058;20.076;2022-07-05T06:13:03;12.33;;;3.67;;
59159;SDS011;44941;45.058;20.076;2022-07-05T06:15:30;9.15;;;3.63;;
59159;SDS011;44941;45.058;20.076;2022-07-05T06:17:56;18.45;;;4.32;;
59159;SDS011;44941;45.058;20.076;2022-07-05T06:20:26;11.82;;;4.22;;
59159;SDS011;44941;45.058;20.076;2022-07-05T06:22:53;11.50;;;3.60;;
59159;SDS011;44941;45.058;20.076;2022-07-05T06:25:20;11.27;;;4.10;;
59159;SDS011;44941;45.058;20.076;2022-07-05T06:27:47;8.57;;;3.33;;
59159;SDS011;44941;45.058;20.076;2022-07-05T06:32:39;8.32;;;3.50;;
59159;SDS011;44941;45.058;20.076;2022-07-05T06:35:06;13.05;;;5.53;;
59159;SDS011;44941;45.058;20.076;2022-07-05T06:40:11;20.95;;;4.30;;
59159;SDS011;44941;45.058;20.076;2022-07-05T06:45:04;11.07;;;3.65;;
59159;SDS011;44941;45.058;20.076;2022-07-05T06:47:31;13.68;;;4.82;;
59159;SDS011;44941;45.058;20.076;2022-07-05T06:49:57;12.70;;;4.47;;
59159;SDS011;44941;45.058;20.076;2022-07-05T06:52:24;9.15;;;4.07;;
59159;SDS011;44941;45.058;20.076;2022-07-05T06:54:50;12.73;;;3.30;;
59159;SDS011;44941;45.058;20.076;2022-07-05T06:57:22;15.43;;;4.63;;
59159;SDS011;44941;45.058;20.076;2022-07-05T06:59:49;26.13;;;6.40;;
59159;SDS011;44941;45.058;20.076;2022-07-05T07:02:15;13.50;;;5.00;;
59159;SDS011;44941;45.058;20.076;2022-07-05T07:04:41;15.65;;;4.47;;
59159;SDS011;44941;45.058;20.076;2022-07-05T07:07:08;6.13;;;3.40;;
59159;SDS011;44941;45.058;20.076;2022-07-05T07:09:59;9.30;;;3.72;;
59159;SDS011;44941;45.058;20.076;2022-07-05T07:12:26;10.88;;;3.50;;
59159;SDS011;44941;45.058;20.076;2022-07-05T07:14:52;9.60;;;3.10;;
59159;SDS011;44941;45.058;20.076;2022-07-05T07:17:18;8.88;;;3.47;;
59159;SDS011;44941;45.058;20.076;2022-07-05T07:19:44;10.38;;;3.55;;
59159;SDS011;44941;45.058;20.076;2022-07-05T07:22:10;12.23;;;4.10;;
59159;SDS011;44941;45.058;20.076;2022-07-05T07:24:36;17.88;;;3.67;;
59159;SDS011;44941;45.058;20.076;2022-07-05T07:27:03;9.60;;;3.33;;
59159;SDS011;44941;45.058;20.076;2022-07-05T07:31:56;11.02;;;3.70;;
59159;SDS011;44941;45.058;20.076;2022-07-05T07:34:22;15.32;;;3.63;;
59159;SDS011;44941;45.058;20.076;2022-07-05T07:36:49;11.40;;;3.43;;
59159;SDS011;44941;45.058;20.076;2022-07-05T07:39:15;8.07;;;3.30;;
59159;SDS011;44941;45.058;20.076;2022-07-05T07:41:41;8.07;;;3.72;;
59159;SDS011;44941;45.058;20.076;2022-07-05T07:44:07;9.70;;;3.58;;
59159;SDS011;44941;45.058;20.076;2022-07-05T07:46:33;11.90;;;4.00;;
59159;SDS011;44941;45.058;20.076;2022-07-05T07:48:59;11.77;;;3.92;;
59159;SDS011;44941;45.058;20.076;2022-07-05T07:51:25;10.27;;;3.70;;
59159;SDS011;44941;45.058;20.076;2022-07-05T07:53:52;15.20;;;5.60;;
59159;SDS011;44941;45.058;20.076;2022-07-05T07:56:19;8.07;;;4.57;;
59159;SDS011;44941;45.058;20.076;2022-07-05T07:58:46;13.63;;;5.65;;
59159;SDS011;44941;45.058;20.076;2022-07-05T08:03:39;12.48;;;4.80;;
59159;SDS011;44941;45.058;20.076;2022-07-05T08:06:05;16.23;;;4.70;;
59159;SDS011;44941;45.058;20.076;2022-07-05T08:08:33;12.27;;;4.40;;
59159;SDS011;44941;45.058;20.076;2022-07-05T08:10:59;11.53;;;4.13;;
59159;SDS011;44941;45.058;20.076;2022-07-05T08:13:25;10.73;;;4.13;;
59159;SDS011;44941;45.058;20.076;2022-07-05T08:15:52;10.25;;;4.22;;
59159;SDS011;44941;45.058;20.076;2022-07-05T08:18:18;7.90;;;4.00;;
59159;SDS011;44941;45.058;20.076;2022-07-05T08:21:03;12.68;;;3.60;;
59159;SDS011;44941;45.058;20.076;2022-07-05T08:23:47;8.20;;;3.30;;
59159;SDS011;44941;45.058;20.076;2022-07-05T08:26:13;13.48;;;3.97;;
59159;SDS011;44941;45.058;20.076;2022-07-05T08:28:39;16.02;;;4.30;;
59159;SDS011;44941;45.058;20.076;2022-07-05T08:31:05;8.75;;;3.22;;
59159;SDS011;44941;45.058;20.076;2022-07-05T08:33:31;9.07;;;3.17;;
59159;SDS011;44941;45.058;20.076;2022-07-05T08:35:57;10.52;;;3.80;;
59159;SDS011;44941;45.058;20.076;2022-07-05T08:38:24;8.98;;;3.80;;
59159;SDS011;44941;45.058;20.076;2022-07-05T08:40:50;13.18;;;3.78;;
59159;SDS011;44941;45.058;20.076;2022-07-05T08:43:17;11.27;;;3.60;;
59159;SDS011;44941;45.058;20.076;2022-07-05T08:45:44;10.82;;;4.18;;
59159;SDS011;44941;45.058;20.076;2022-07-05T08:48:11;11.13;;;3.10;;
59159;SDS011;44941;45.058;20.076;2022-07-05T08:50:38;12.65;;;3.25;;
59159;SDS011;44941;45.058;20.076;2022-07-05T08:53:05;12.73;;;3.28;;
59159;SDS011;44941;45.058;20.076;2022-07-05T08:55:32;8.52;;;3.55;;
59159;SDS011;44941;45.058;20.076;2022-07-05T08:57:58;8.18;;;4.03;;
59159;SDS011;44941;45.058;20.076;2022-07-05T09:00:24;8.37;;;3.30;;
59159;SDS011;44941;45.058;20.076;2022-07-05T09:02:50;8.60;;;4.50;;
59159;SDS011;44941;45.058;20.076;2022-07-05T09:05:17;14.75;;;3.90;;
59159;SDS011;44941;45.058;20.076;2022-07-05T09:07:48;10.02;;;4.50;;
59159;SDS011;44941;45.058;20.076;2022-07-05T09:10:17;11.18;;;3.45;;
59159;SDS011;44941;45.058;20.076;2022-07-05T09:12:45;11.50;;;4.28;;
59159;SDS011;44941;45.058;20.076;2022-07-05T09:15:12;9.85;;;3.13;;
59159;SDS011;44941;45.058;20.076;2022-07-05T09:17:44;10.40;;;3.03;;
59159;SDS011;44941;45.058;20.076;2022-07-05T09:22:44;8.07;;;3.30;;
59159;SDS011;44941;45.058;20.076;2022-07-05T09:25:17;9.13;;;2.97;;
59159;SDS011;44941;45.058;20.076;2022-07-05T09:33:02;7.43;;;2.75;;
59159;SDS011;44941;45.058;20.076;2022-07-05T09:35:28;13.13;;;3.25;;
59159;SDS011;44941;45.058;20.076;2022-07-05T09:37:55;8.40;;;3.33;;
59159;SDS011;44941;45.058;20.076;2022-07-05T09:40:21;10.63;;;2.70;;
59159;SDS011;44941;45.058;20.076;2022-07-05T09:42:47;8.73;;;2.67;;
59159;SDS011;44941;45.058;20.076;2022-07-05T09:45:15;9.88;;;2.58;;
59159;SDS011;44941;45.058;20.076;2022-07-05T09:47:47;7.97;;;2.72;;
59159;SDS011;44941;45.058;20.076;2022-07-05T09:50:13;10.07;;;6.83;;
59159;SDS011;44941;45.058;20.076;2022-07-05T09:52:41;17.58;;;10.48;;
59159;SDS011;44941;45.058;20.076;2022-07-05T09:55:08;5.82;;;3.08;;
59159;SDS011;44941;45.058;20.076;2022-07-05T09:57:38;5.85;;;2.28;;
59159;SDS011;44941;45.058;20.076;2022-07-05T10:02:34;5.45;;;2.10;;
59159;SDS011;44941;45.058;20.076;2022-07-05T10:05:34;7.95;;;1.70;;
59159;SDS011;44941;45.058;20.076;2022-07-05T10:07:56;6.32;;;2.00;;
59159;SDS011;44941;45.058;20.076;2022-07-05T10:10:24;8.13;;;5.07;;
59159;SDS011;44941;45.058;20.076;2022-07-05T10:12:51;4.32;;;2.25;;
59159;SDS011;44941;45.058;20.076;2022-07-05T10:15:18;5.30;;;1.45;;
59159;SDS011;44941;45.058;20.076;2022-07-05T10:17:45;5.60;;;1.85;;
59159;SDS011;44941;45.058;20.076;2022-07-05T10:22:41;7.60;;;2.22;;
59159;SDS011;44941;45.058;20.076;2022-07-05T10:25:07;4.53;;;2.35;;
59159;SDS011;44941;45.058;20.076;2022-07-05T10:27:33;5.37;;;2.50;;
59159;SDS011;44941;45.058;20.076;2022-07-05T10:30:00;9.10;;;2.70;;
59159;SDS011;44941;45.058;20.076;2022-07-05T10:32:27;6.97;;;3.60;;
59159;SDS011;44941;45.058;20.076;2022-07-05T10:37:21;30.25;;;12.68;;
59159;SDS011;44941;45.058;20.076;2022-07-05T10:39:48;25.88;;;9.45;;
59159;SDS011;44941;45.058;20.076;2022-07-05T10:42:14;9.33;;;4.87;;
59159;SDS011;44941;45.058;20.076;2022-07-05T10:44:40;12.38;;;3.72;;
59159;SDS011;44941;45.058;20.076;2022-07-05T10:47:10;6.33;;;2.97;;
59159;SDS011;44941;45.058;20.076;2022-07-05T10:49:36;8.48;;;3.10;;
59159;SDS011;44941;45.058;20.076;2022-07-05T10:52:03;10.50;;;2.80;;
59159;SDS011;44941;45.058;20.076;2022-07-05T10:54:30;7.50;;;2.45;;
59159;SDS011;44941;45.058;20.076;2022-07-05T11:02:26;6.30;;;2.63;;
59159;SDS011;44941;45.058;20.076;2022-07-05T11:04:55;16.10;;;4.28;;
59159;SDS011;44941;45.058;20.076;2022-07-05T11:10:06;7.18;;;2.60;;
59159;SDS011;44941;45.058;20.076;2022-07-05T11:12:35;6.10;;;2.78;;
59159;SDS011;44941;45.058;20.076;2022-07-05T11:15:06;7.82;;;2.40;;
59159;SDS011;44941;45.058;20.076;2022-07-05T11:17:33;10.27;;;2.67;;
59159;SDS011;44941;45.058;20.076;2022-07-05T11:22:34;19.15;;;2.90;;
59159;SDS011;44941;45.058;20.076;2022-07-05T11:25:01;8.27;;;2.53;;
59159;SDS011;44941;45.058;20.076;2022-07-05T11:27:27;8.13;;;2.42;;
59159;SDS011;44941;45.058;20.076;2022-07-05T11:29:54;8.52;;;2.80;;
59159;SDS011;44941;45.058;20.076;2022-07-05T11:34:50;13.02;;;2.80;;
59159;SDS011;44941;45.058;20.076;2022-07-05T11:37:17;9.35;;;2.72;;
59159;SDS011;44941;45.058;20.076;2022-07-05T11:39:45;16.73;;;2.85;;
59159;SDS011;44941;45.058;20.076;2022-07-05T11:42:21;13.90;;;2.75;;
59159;SDS011;44941;45.058;20.076;2022-07-05T11:44:51;10.07;;;2.50;;
59159;SDS011;44941;45.058;20.076;2022-07-05T11:47:17;8.35;;;2.60;;
59159;SDS011;44941;45.058;20.076;2022-07-05T11:49:55;7.75;;;2.85;;
59159;SDS011;44941;45.058;20.076;2022-07-05T11:52:24;6.93;;;2.70;;
59159;SDS011;44941;45.058;20.076;2022-07-05T11:54:51;8.68;;;2.53;;
59159;SDS011;44941;45.058;20.076;2022-07-05T11:57:18;9.30;;;2.75;;
59159;SDS011;44941;45.058;20.076;2022-07-05T11:59:44;8.32;;;2.47;;
59159;SDS011;44941;45.058;20.076;2022-07-05T12:02:10;6.50;;;2.60;;
59159;SDS011;44941;45.058;20.076;2022-07-05T12:04:37;9.20;;;2.30;;
59159;SDS011;44941;45.058;20.076;2022-07-05T12:07:03;5.47;;;2.38;;
59159;SDS011;44941;45.058;20.076;2022-07-05T12:09:31;10.48;;;2.70;;
59159;SDS011;44941;45.058;20.076;2022-07-05T12:12:24;8.37;;;2.10;;
59159;SDS011;44941;45.058;20.076;2022-07-05T12:17:38;8.77;;;2.70;;
59159;SDS011;44941;45.058;20.076;2022-07-05T12:20:05;7.40;;;2.22;;
59159;SDS011;44941;45.058;20.076;2022-07-05T12:24:58;8.80;;;2.38;;
59159;SDS011;44941;45.058;20.076;2022-07-05T12:27:26;16.48;;;2.58;;
59159;SDS011;44941;45.058;20.076;2022-07-05T12:29:52;9.63;;;2.50;;
59159;SDS011;44941;45.058;20.076;2022-07-05T12:32:18;13.13;;;2.78;;
59159;SDS011;44941;45.058;20.076;2022-07-05T12:34:45;11.77;;;2.90;;
59159;SDS011;44941;45.058;20.076;2022-07-05T12:37:19;9.60;;;2.50;;
59159;SDS011;44941;45.058;20.076;2022-07-05T12:39:45;14.48;;;3.20;;
59159;SDS011;44941;45.058;20.076;2022-07-05T12:42:11;6.75;;;2.88;;
59159;SDS011;44941;45.058;20.076;2022-07-05T12:45:09;9.93;;;2.90;;
59159;SDS011;44941;45.058;20.076;2022-07-05T12:47:57;7.57;;;2.30;;
59159;SDS011;44941;45.058;20.076;2022-07-05T12:50:23;8.52;;;2.42;;
59159;SDS011;44941;45.058;20.076;2022-07-05T12:53:05;8.13;;;2.78;;
59159;SDS011;44941;45.058;20.076;2022-07-05T12:55:57;9.15;;;2.90;;
59159;SDS011;44941;45.058;20.076;2022-07-05T12:58:45;8.30;;;2.72;;
59159;SDS011;44941;45.058;20.076;2022-07-05T13:01:22;15.13;;;3.13;;
59159;SDS011;44941;45.058;20.076;2022-07-05T13:04:02;11.52;;;2.72;;
59159;SDS011;44941;45.058;20.076;2022-07-05T13:09:15;9.35;;;3.72;;
59159;SDS011;44941;45.058;20.076;2022-07-05T13:11:42;8.70;;;3.10;;
59159;SDS011;44941;45.058;20.076;2022-07-05T13:14:09;17.40;;;7.80;;
59159;SDS011;44941;45.058;20.076;2022-07-05T13:16:35;12.82;;;3.92;;
59159;SDS011;44941;45.058;20.076;2022-07-05T13:19:08;8.55;;;2.88;;
59159;SDS011;44941;45.058;20.076;2022-07-05T13:21:35;12.55;;;3.40;;
59159;SDS011;44941;45.058;20.076;2022-07-05T13:24:01;15.50;;;6.87;;
59159;SDS011;44941;45.058;20.076;2022-07-05T13:26:27;10.23;;;3.17;;
59159;SDS011;44941;45.058;20.076;2022-07-05T13:28:53;8.77;;;3.30;;
59159;SDS011;44941;45.058;20.076;2022-07-05T13:31:19;17.90;;;3.10;;
59159;SDS011;44941;45.058;20.076;2022-07-05T13:33:45;8.97;;;2.60;;
59159;SDS011;44941;45.058;20.076;2022-07-05T13:36:12;12.50;;;3.83;;
59159;SDS011;44941;45.058;20.076;2022-07-05T13:38:38;11.67;;;2.87;;
59159;SDS011;44941;45.058;20.076;2022-07-05T13:41:04;5.95;;;2.90;;
59159;SDS011;44941;45.058;20.076;2022-07-05T13:43:30;10.63;;;4.23;;
59159;SDS011;44941;45.058;20.076;2022-07-05T13:45:56;9.87;;;2.87;;
59159;SDS011;44941;45.058;20.076;2022-07-05T13:48:22;7.83;;;3.63;;
59159;SDS011;44941;45.058;20.076;2022-07-05T13:50:48;7.53;;;3.00;;
59159;SDS011;44941;45.058;20.076;2022-07-05T13:53:14;11.48;;;3.95;;
59159;SDS011;44941;45.058;20.076;2022-07-05T13:55:41;9.82;;;3.25;;
59159;SDS011;44941;45.058;20.076;2022-07-05T13:58:07;8.70;;;3.10;;
59159;SDS011;44941;45.058;20.076;2022-07-05T14:00:33;14.23;;;3.03;;
59159;SDS011;44941;45.058;20.076;2022-07-05T14:03:00;13.52;;;2.75;;
59159;SDS011;44941;45.058;20.076;2022-07-05T14:05:26;11.45;;;2.33;;
59159;SDS011;44941;45.058;20.076;2022-07-05T14:07:52;26.33;;;3.47;;
59159;SDS011;44941;45.058;20.076;2022-07-05T14:10:18;11.93;;;2.78;;
59159;SDS011;44941;45.058;20.076;2022-07-05T14:12:44;21.53;;;2.83;;
59159;SDS011;44941;45.058;20.076;2022-07-05T14:15:10;17.83;;;2.95;;
59159;SDS011;44941;45.058;20.076;2022-07-05T14:17:37;12.83;;;2.60;;
59159;SDS011;44941;45.058;20.076;2022-07-05T14:20:03;11.77;;;2.15;;
59159;SDS011;44941;45.058;20.076;2022-07-05T14:22:29;20.75;;;2.28;;
59159;SDS011;44941;45.058;20.076;2022-07-05T14:24:56;22.40;;;2.88;;
59159;SDS011;44941;45.058;20.076;2022-07-05T14:27:22;17.57;;;2.70;;
59159;SDS011;44941;45.058;20.076;2022-07-05T14:29:48;14.57;;;2.08;;
59159;SDS011;44941;45.058;20.076;2022-07-05T14:32:14;20.77;;;3.07;;
59159;SDS011;44941;45.058;20.076;2022-07-05T14:34:40;24.97;;;3.13;;
59159;SDS011;44941;45.058;20.076;2022-07-05T14:37:06;12.77;;;2.17;;
59159;SDS011;44941;45.058;20.076;2022-07-05T14:39:33;28.73;;;3.00;;
59159;SDS011;44941;45.058;20.076;2022-07-05T14:41:59;14.03;;;2.00;;
59159;SDS011;44941;45.058;20.076;2022-07-05T14:44:25;14.23;;;2.87;;
59159;SDS011;44941;45.058;20.076;2022-07-05T14:46:51;11.60;;;2.33;;
59159;SDS011;44941;45.058;20.076;2022-07-05T14:49:17;14.73;;;3.03;;
59159;SDS011;44941;45.058;20.076;2022-07-05T14:51:44;12.43;;;4.13;;
59159;SDS011;44941;45.058;20.076;2022-07-05T14:54:10;13.35;;;3.47;;
59159;SDS011;44941;45.058;20.076;2022-07-05T14:56:36;21.92;;;3.25;;
59159;SDS011;44941;45.058;20.076;2022-07-05T14:59:02;12.23;;;3.05;;
59159;SDS011;44941;45.058;20.076;2022-07-05T15:01:28;9.73;;;2.50;;
59159;SDS011;44941;45.058;20.076;2022-07-05T15:03:54;17.88;;;5.20;;
59159;SDS011;44941;45.058;20.076;2022-07-05T15:06:20;17.25;;;4.65;;
59159;SDS011;44941;45.058;20.076;2022-07-05T15:08:47;13.38;;;3.42;;
59159;SDS011;44941;45.058;20.076;2022-07-05T15:11:13;13.00;;;4.35;;
59159;SDS011;44941;45.058;20.076;2022-07-05T15:13:39;13.52;;;3.70;;
59159;SDS011;44941;45.058;20.076;2022-07-05T15:16:05;15.23;;;2.85;;
59159;SDS011;44941;45.058;20.076;2022-07-05T15:18:32;13.65;;;3.53;;
59159;SDS011;44941;45.058;20.076;2022-07-05T15:20:58;15.30;;;3.10;;
59159;SDS011;44941;45.058;20.076;2022-07-05T15:23:24;7.40;;;2.30;;
59159;SDS011;44941;45.058;20.076;2022-07-05T15:25:53;8.38;;;2.55;;